sensor_id;sensor_type;location;lat;lon;timestamp;temperature;humidity
12688;DHT22;6408;59.388;17.798;2023-02-14T00:01:49;4.40;99.90
12688;DHT22;6408;59.388;17.798;2023-02-14T00:04:17;4.30;99.90
12688;DHT22;6408;59.388;17.798;2023-02-14T00:06:46;4.30;99.90
12688;DHT22;6408;59.388;17.798;2023-02-14T00:09:17;4.30;99.90
12688;DHT22;6408;59.388;17.798;2023-02-14T00:11:44;4.30;99.90
12688;DHT22;6408;59.388;17.798;2023-02-14T00:14:12;4.30;99.90
12688;DHT22;6408;59.388;17.798;2023-02-14T00:17:00;4.40;99.90
12688;DHT22;6408;59.388;17.798;2023-02-14T00:19:27;4.30;99.90
12688;DHT22;6408;59.388;17.798;2023-02-14T00:21:57;4.30;99.90
12688;DHT22;6408;59.388;17.798;2023-02-14T00:24:25;4.30;99.90
12688;DHT22;6408;59.388;17.798;2023-02-14T00:26:53;4.30;99.90
12688;DHT22;6408;59.388;17.798;2023-02-14T00:29:22;4.30;99.90
12688;DHT22;6408;59.388;17.798;2023-02-14T00:31:50;4.40;99.90
12688;DHT22;6408;59.388;17.798;2023-02-14T00:34:18;4.40;99.90
12688;DHT22;6408;59.388;17.798;2023-02-14T00:36:46;4.40;99.90
12688;DHT22;6408;59.388;17.798;2023-02-14T00:39:16;4.40;99.90
12688;DHT22;6408;59.388;17.798;2023-02-14T00:41:44;4.40;99.90
12688;DHT22;6408;59.388;17.798;2023-02-14T00:44:12;4.40;99.90
12688;DHT22;6408;59.388;17.798;2023-02-14T00:46:40;4.40;99.90
12688;DHT22;6408;59.388;17.798;2023-02-14T00:49:07;4.40;99.90
12688;DHT22;6408;59.388;17.798;2023-02-14T00:51:35;4.40;99.90
12688;DHT22;6408;59.388;17.798;2023-02-14T00:54:02;4.40;99.90
12688;DHT22;6408;59.388;17.798;2023-02-14T00:56:32;4.40;99.90
12688;DHT22;6408;59.388;17.798;2023-02-14T00:58:59;4.30;99.90
12688;DHT22;6408;59.388;17.798;2023-02-14T01:01:26;4.30;99.90
12688;DHT22;6408;59.388;17.798;2023-02-14T01:03:54;4.20;99.90
12688;DHT22;6408;59.388;17.798;2023-02-14T01:06:21;4.20;99.90
12688;DHT22;6408;59.388;17.798;2023-02-14T01:08:48;4.20;99.90
12688;DHT22;6408;59.388;17.798;2023-02-14T01:11:19;4.20;99.90
12688;DHT22;6408;59.388;17.798;2023-02-14T01:13:48;4.20;99.90
12688;DHT22;6408;59.388;17.798;2023-02-14T01:16:17;4.10;99.90
12688;DHT22;6408;59.388;17.798;2023-02-14T01:18:45;4.00;99.90
12688;DHT22;6408;59.388;17.798;2023-02-14T01:21:17;4.00;99.90
12688;DHT22;6408;59.388;17.798;2023-02-14T01:23:46;4.00;99.90
12688;DHT22;6408;59.388;17.798;2023-02-14T01:26:15;4.00;99.90
12688;DHT22;6408;59.388;17.798;2023-02-14T01:28:44;4.00;99.90
12688;DHT22;6408;59.388;17.798;2023-02-14T01:31:18;3.90;99.90
12688;DHT22;6408;59.388;17.798;2023-02-14T01:33:47;3.90;99.90
12688;DHT22;6408;59.388;17.798;2023-02-14T01:36:16;3.80;99.90
12688;DHT22;6408;59.388;17.798;2023-02-14T01:38:44;3.80;99.90
12688;DHT22;6408;59.388;17.798;2023-02-14T01:41:11;3.70;99.90
12688;DHT22;6408;59.388;17.798;2023-02-14T01:43:50;3.70;99.90
12688;DHT22;6408;59.388;17.798;2023-02-14T01:46:21;3.70;99.90
12688;DHT22;6408;59.388;17.798;2023-02-14T01:48:49;3.80;99.90
12688;DHT22;6408;59.388;17.798;2023-02-14T01:51:19;3.70;99.90
12688;DHT22;6408;59.388;17.798;2023-02-14T01:53:47;3.70;99.90
12688;DHT22;6408;59.388;17.798;2023-02-14T01:56:18;3.60;99.90
12688;DHT22;6408;59.388;17.798;2023-02-14T01:58:51;3.60;99.90
12688;DHT22;6408;59.388;17.798;2023-02-14T02:01:22;3.50;99.90
12688;DHT22;6408;59.388;17.798;2023-02-14T02:03:53;3.50;99.90
12688;DHT22;6408;59.388;17.798;2023-02-14T02:06:25;3.60;99.90
12688;DHT22;6408;59.388;17.798;2023-02-14T02:09:03;3.50;99.90
12688;DHT22;6408;59.388;17.798;2023-02-14T02:11:33;3.50;99.90
12688;DHT22;6408;59.388;17.798;2023-02-14T02:14:01;3.60;99.90
12688;DHT22;6408;59.388;17.798;2023-02-14T02:16:53;3.50;99.90
12688;DHT22;6408;59.388;17.798;2023-02-14T02:19:48;3.50;99.90
12688;DHT22;6408;59.388;17.798;2023-02-14T02:25:55;3.50;99.90
12688;DHT22;6408;59.388;17.798;2023-02-14T02:28:43;3.50;99.90
12688;DHT22;6408;59.388;17.798;2023-02-14T02:31:43;3.50;99.90
12688;DHT22;6408;59.388;17.798;2023-02-14T02:37:34;3.50;99.90
12688;DHT22;6408;59.388;17.798;2023-02-14T02:40:21;3.50;99.90
12688;DHT22;6408;59.388;17.798;2023-02-14T02:43:04;3.40;99.90
12688;DHT22;6408;59.388;17.798;2023-02-14T02:45:40;3.40;99.90
12688;DHT22;6408;59.388;17.798;2023-02-14T02:48:26;3.30;99.90
12688;DHT22;6408;59.388;17.798;2023-02-14T02:50:57;3.40;99.90
12688;DHT22;6408;59.388;17.798;2023-02-14T02:53:48;3.40;99.90
12688;DHT22;6408;59.388;17.798;2023-02-14T02:56:19;3.30;99.90
12688;DHT22;6408;59.388;17.798;2023-02-14T02:59:07;3.30;99.90
12688;DHT22;6408;59.388;17.798;2023-02-14T03:01:46;3.30;99.90
12688;DHT22;6408;59.388;17.798;2023-02-14T03:04:16;3.30;99.90
12688;DHT22;6408;59.388;17.798;2023-02-14T03:07:02;3.30;99.90
12688;DHT22;6408;59.388;17.798;2023-02-14T03:09:55;3.20;99.90
12688;DHT22;6408;59.388;17.798;2023-02-14T03:13:01;3.20;99.90
12688;DHT22;6408;59.388;17.798;2023-02-14T03:15:40;3.20;99.90
12688;DHT22;6408;59.388;17.798;2023-02-14T03:18:18;3.20;99.90
12688;DHT22;6408;59.388;17.798;2023-02-14T03:20:54;3.20;99.90
12688;DHT22;6408;59.388;17.798;2023-02-14T03:23:24;3.10;99.90
12688;DHT22;6408;59.388;17.798;2023-02-14T03:26:01;3.10;99.90
12688;DHT22;6408;59.388;17.798;2023-02-14T03:28:37;3.10;99.90
12688;DHT22;6408;59.388;17.798;2023-02-14T03:31:12;3.10;99.90
12688;DHT22;6408;59.388;17.798;2023-02-14T03:33:47;3.10;99.90
12688;DHT22;6408;59.388;17.798;2023-02-14T03:36:20;3.10;99.90
12688;DHT22;6408;59.388;17.798;2023-02-14T03:38:55;3.10;99.90
12688;DHT22;6408;59.388;17.798;2023-02-14T03:41:33;3.00;99.90
12688;DHT22;6408;59.388;17.798;2023-02-14T03:44:04;3.00;99.90
12688;DHT22;6408;59.388;17.798;2023-02-14T03:46:37;3.10;99.90
12688;DHT22;6408;59.388;17.798;2023-02-14T03:49:10;3.10;99.90
12688;DHT22;6408;59.388;17.798;2023-02-14T03:51:39;3.10;99.90
12688;DHT22;6408;59.388;17.798;2023-02-14T03:54:09;3.10;99.90
12688;DHT22;6408;59.388;17.798;2023-02-14T03:56:40;3.20;99.90
12688;DHT22;6408;59.388;17.798;2023-02-14T03:59:13;3.10;99.90
12688;DHT22;6408;59.388;17.798;2023-02-14T04:01:45;3.20;99.90
12688;DHT22;6408;59.388;17.798;2023-02-14T04:04:15;3.20;99.90
12688;DHT22;6408;59.388;17.798;2023-02-14T04:06:43;3.20;99.90
12688;DHT22;6408;59.388;17.798;2023-02-14T04:09:11;3.20;99.90
12688;DHT22;6408;59.388;17.798;2023-02-14T04:11:40;3.20;99.90
12688;DHT22;6408;59.388;17.798;2023-02-14T04:14:07;3.20;99.90
12688;DHT22;6408;59.388;17.798;2023-02-14T04:16:34;3.20;99.90
12688;DHT22;6408;59.388;17.798;2023-02-14T04:19:21;3.10;99.90
12688;DHT22;6408;59.388;17.798;2023-02-14T04:21:48;3.10;99.90
12688;DHT22;6408;59.388;17.798;2023-02-14T04:24:15;3.10;99.90
12688;DHT22;6408;59.388;17.798;2023-02-14T04:26:44;3.10;99.90
12688;DHT22;6408;59.388;17.798;2023-02-14T04:29:35;3.10;99.90
12688;DHT22;6408;59.388;17.798;2023-02-14T04:32:04;3.10;99.90
12688;DHT22;6408;59.388;17.798;2023-02-14T04:34:31;3.00;99.90
12688;DHT22;6408;59.388;17.798;2023-02-14T04:36:58;3.00;99.90
12688;DHT22;6408;59.388;17.798;2023-02-14T04:39:26;2.90;99.90
12688;DHT22;6408;59.388;17.798;2023-02-14T04:41:54;2.90;99.90
12688;DHT22;6408;59.388;17.798;2023-02-14T04:44:21;2.80;99.90
12688;DHT22;6408;59.388;17.798;2023-02-14T04:46:49;2.70;99.90
12688;DHT22;6408;59.388;17.798;2023-02-14T04:49:16;2.70;99.90
12688;DHT22;6408;59.388;17.798;2023-02-14T04:51:44;2.60;99.90
12688;DHT22;6408;59.388;17.798;2023-02-14T04:54:11;2.60;99.90
12688;DHT22;6408;59.388;17.798;2023-02-14T04:56:39;2.50;99.90
12688;DHT22;6408;59.388;17.798;2023-02-14T04:59:08;2.50;99.90
12688;DHT22;6408;59.388;17.798;2023-02-14T05:01:35;2.50;99.90
12688;DHT22;6408;59.388;17.798;2023-02-14T05:04:03;2.40;99.90
12688;DHT22;6408;59.388;17.798;2023-02-14T05:06:31;2.40;99.90
12688;DHT22;6408;59.388;17.798;2023-02-14T05:08:59;2.40;99.90
12688;DHT22;6408;59.388;17.798;2023-02-14T05:11:27;2.40;99.90
12688;DHT22;6408;59.388;17.798;2023-02-14T05:13:54;2.40;99.90
12688;DHT22;6408;59.388;17.798;2023-02-14T05:16:24;2.40;99.90
12688;DHT22;6408;59.388;17.798;2023-02-14T05:18:52;2.40;99.90
12688;DHT22;6408;59.388;17.798;2023-02-14T05:21:19;2.40;99.90
12688;DHT22;6408;59.388;17.798;2023-02-14T05:23:47;2.30;99.90
12688;DHT22;6408;59.388;17.798;2023-02-14T05:26:14;2.30;99.90
12688;DHT22;6408;59.388;17.798;2023-02-14T05:28:42;2.30;99.90
12688;DHT22;6408;59.388;17.798;2023-02-14T05:31:09;2.30;99.90
12688;DHT22;6408;59.388;17.798;2023-02-14T05:33:39;2.30;99.90
12688;DHT22;6408;59.388;17.798;2023-02-14T05:36:07;2.20;99.90
12688;DHT22;6408;59.388;17.798;2023-02-14T05:38:34;2.20;99.90
12688;DHT22;6408;59.388;17.798;2023-02-14T05:41:02;2.20;99.90
12688;DHT22;6408;59.388;17.798;2023-02-14T05:43:30;2.10;99.90
12688;DHT22;6408;59.388;17.798;2023-02-14T05:45:57;2.10;99.90
12688;DHT22;6408;59.388;17.798;2023-02-14T05:48:25;2.00;99.90
12688;DHT22;6408;59.388;17.798;2023-02-14T05:50:54;2.00;99.90
12688;DHT22;6408;59.388;17.798;2023-02-14T05:53:22;2.00;99.90
12688;DHT22;6408;59.388;17.798;2023-02-14T05:55:49;2.00;99.90
12688;DHT22;6408;59.388;17.798;2023-02-14T05:58:17;2.00;99.90
12688;DHT22;6408;59.388;17.798;2023-02-14T06:00:45;1.90;99.90
12688;DHT22;6408;59.388;17.798;2023-02-14T06:03:12;1.90;99.90
12688;DHT22;6408;59.388;17.798;2023-02-14T06:05:40;1.90;99.90
12688;DHT22;6408;59.388;17.798;2023-02-14T06:08:10;1.90;99.90
12688;DHT22;6408;59.388;17.798;2023-02-14T06:10:37;1.90;99.90
12688;DHT22;6408;59.388;17.798;2023-02-14T06:13:05;1.90;99.90
12688;DHT22;6408;59.388;17.798;2023-02-14T06:15:33;1.90;99.90
12688;DHT22;6408;59.388;17.798;2023-02-14T06:18:01;1.90;99.90
12688;DHT22;6408;59.388;17.798;2023-02-14T06:20:29;1.90;99.90
12688;DHT22;6408;59.388;17.798;2023-02-14T06:22:57;1.90;99.90
12688;DHT22;6408;59.388;17.798;2023-02-14T06:25:26;2.00;99.90
12688;DHT22;6408;59.388;17.798;2023-02-14T06:27:57;1.90;99.90
12688;DHT22;6408;59.388;17.798;2023-02-14T06:30:26;1.90;99.90
12688;DHT22;6408;59.388;17.798;2023-02-14T06:32:54;1.90;99.90
12688;DHT22;6408;59.388;17.798;2023-02-14T06:35:22;2.00;99.90
12688;DHT22;6408;59.388;17.798;2023-02-14T06:37:50;2.00;99.90
12688;DHT22;6408;59.388;17.798;2023-02-14T06:40:17;2.10;99.90
12688;DHT22;6408;59.388;17.798;2023-02-14T06:42:47;2.10;99.90
12688;DHT22;6408;59.388;17.798;2023-02-14T06:45:15;2.10;99.90
12688;DHT22;6408;59.388;17.798;2023-02-14T06:47:43;2.10;99.90
12688;DHT22;6408;59.388;17.798;2023-02-14T06:50:11;2.00;99.90
12688;DHT22;6408;59.388;17.798;2023-02-14T06:52:39;2.00;99.90
12688;DHT22;6408;59.388;17.798;2023-02-14T06:55:07;2.00;99.90
12688;DHT22;6408;59.388;17.798;2023-02-14T06:57:36;2.00;99.90
12688;DHT22;6408;59.388;17.798;2023-02-14T07:00:08;2.00;99.90
12688;DHT22;6408;59.388;17.798;2023-02-14T07:02:36;2.10;99.90
12688;DHT22;6408;59.388;17.798;2023-02-14T07:05:04;2.20;99.90
12688;DHT22;6408;59.388;17.798;2023-02-14T07:07:32;2.30;99.90
12688;DHT22;6408;59.388;17.798;2023-02-14T07:09:59;2.30;99.90
12688;DHT22;6408;59.388;17.798;2023-02-14T07:12:27;2.20;99.90
12688;DHT22;6408;59.388;17.798;2023-02-14T07:14:54;2.30;99.90
12688;DHT22;6408;59.388;17.798;2023-02-14T07:17:24;2.30;99.90
12688;DHT22;6408;59.388;17.798;2023-02-14T07:19:51;2.30;99.90
12688;DHT22;6408;59.388;17.798;2023-02-14T07:22:19;2.30;99.90
12688;DHT22;6408;59.388;17.798;2023-02-14T07:24:46;2.30;99.90
12688;DHT22;6408;59.388;17.798;2023-02-14T07:27:14;2.40;99.90
12688;DHT22;6408;59.388;17.798;2023-02-14T07:29:42;2.40;99.90
12688;DHT22;6408;59.388;17.798;2023-02-14T07:32:09;2.40;99.90
12688;DHT22;6408;59.388;17.798;2023-02-14T07:34:39;2.40;99.90
12688;DHT22;6408;59.388;17.798;2023-02-14T07:37:06;2.40;99.90
12688;DHT22;6408;59.388;17.798;2023-02-14T07:39:34;2.50;99.90
12688;DHT22;6408;59.388;17.798;2023-02-14T07:42:02;2.60;99.90
12688;DHT22;6408;59.388;17.798;2023-02-14T07:44:29;2.50;99.90
12688;DHT22;6408;59.388;17.798;2023-02-14T07:46:57;2.60;99.90
12688;DHT22;6408;59.388;17.798;2023-02-14T07:49:24;2.60;99.90
12688;DHT22;6408;59.388;17.798;2023-02-14T07:51:53;2.60;99.90
12688;DHT22;6408;59.388;17.798;2023-02-14T07:54:21;2.60;99.90
12688;DHT22;6408;59.388;17.798;2023-02-14T07:56:49;2.60;99.90
12688;DHT22;6408;59.388;17.798;2023-02-14T07:59:16;2.70;99.90
12688;DHT22;6408;59.388;17.798;2023-02-14T08:01:44;2.70;99.90
12688;DHT22;6408;59.388;17.798;2023-02-14T08:04:12;2.80;99.90
12688;DHT22;6408;59.388;17.798;2023-02-14T08:06:40;2.80;99.90
12688;DHT22;6408;59.388;17.798;2023-02-14T08:09:09;2.90;99.90
12688;DHT22;6408;59.388;17.798;2023-02-14T08:11:49;2.90;99.90
12688;DHT22;6408;59.388;17.798;2023-02-14T08:14:33;3.00;99.90
12688;DHT22;6408;59.388;17.798;2023-02-14T08:17:01;3.10;99.90
12688;DHT22;6408;59.388;17.798;2023-02-14T08:19:29;3.10;99.90
12688;DHT22;6408;59.388;17.798;2023-02-14T08:21:57;3.20;99.90
12688;DHT22;6408;59.388;17.798;2023-02-14T08:24:27;3.20;99.90
12688;DHT22;6408;59.388;17.798;2023-02-14T08:26:54;3.40;99.90
12688;DHT22;6408;59.388;17.798;2023-02-14T08:29:22;3.50;99.90
12688;DHT22;6408;59.388;17.798;2023-02-14T08:31:49;3.60;99.90
12688;DHT22;6408;59.388;17.798;2023-02-14T08:34:17;3.60;99.90
12688;DHT22;6408;59.388;17.798;2023-02-14T08:36:45;3.80;99.90
12688;DHT22;6408;59.388;17.798;2023-02-14T08:39:12;3.90;99.90
12688;DHT22;6408;59.388;17.798;2023-02-14T08:41:42;4.00;99.90
12688;DHT22;6408;59.388;17.798;2023-02-14T08:44:09;4.10;99.90
12688;DHT22;6408;59.388;17.798;2023-02-14T08:46:37;4.20;99.90
12688;DHT22;6408;59.388;17.798;2023-02-14T08:49:04;4.20;99.90
12688;DHT22;6408;59.388;17.798;2023-02-14T08:51:32;4.10;99.90
12688;DHT22;6408;59.388;17.798;2023-02-14T08:54:00;4.20;99.90
12688;DHT22;6408;59.388;17.798;2023-02-14T08:56:27;4.10;99.90
12688;DHT22;6408;59.388;17.798;2023-02-14T08:58:56;4.10;99.90
12688;DHT22;6408;59.388;17.798;2023-02-14T09:01:24;4.00;99.90
12688;DHT22;6408;59.388;17.798;2023-02-14T09:03:53;4.10;99.90
12688;DHT22;6408;59.388;17.798;2023-02-14T09:06:21;4.20;99.90
12688;DHT22;6408;59.388;17.798;2023-02-14T09:08:49;4.10;99.90
12688;DHT22;6408;59.388;17.798;2023-02-14T09:11:20;4.00;99.90
12688;DHT22;6408;59.388;17.798;2023-02-14T09:13:48;4.10;99.90
12688;DHT22;6408;59.388;17.798;2023-02-14T09:16:21;4.10;99.90
12688;DHT22;6408;59.388;17.798;2023-02-14T09:18:49;4.10;99.90
12688;DHT22;6408;59.388;17.798;2023-02-14T09:21:19;4.10;99.90
12688;DHT22;6408;59.388;17.798;2023-02-14T09:23:47;4.10;99.90
12688;DHT22;6408;59.388;17.798;2023-02-14T09:26:15;4.20;99.90
12688;DHT22;6408;59.388;17.798;2023-02-14T09:28:44;4.20;99.90
12688;DHT22;6408;59.388;17.798;2023-02-14T09:31:14;4.30;99.90
12688;DHT22;6408;59.388;17.798;2023-02-14T09:33:44;5.00;99.90
12688;DHT22;6408;59.388;17.798;2023-02-14T09:36:12;5.50;99.90
12688;DHT22;6408;59.388;17.798;2023-02-14T09:38:39;6.20;99.90
12688;DHT22;6408;59.388;17.798;2023-02-14T09:41:08;6.50;99.90
12688;DHT22;6408;59.388;17.798;2023-02-14T09:43:40;6.80;99.90
12688;DHT22;6408;59.388;17.798;2023-02-14T09:46:13;7.90;99.90
12688;DHT22;6408;59.388;17.798;2023-02-14T09:48:46;8.50;99.90
12688;DHT22;6408;59.388;17.798;2023-02-14T09:51:16;8.60;99.90
12688;DHT22;6408;59.388;17.798;2023-02-14T09:53:47;8.50;99.90
12688;DHT22;6408;59.388;17.798;2023-02-14T09:56:19;8.70;99.90
12688;DHT22;6408;59.388;17.798;2023-02-14T09:58:54;8.80;99.90
12688;DHT22;6408;59.388;17.798;2023-02-14T10:01:27;7.70;99.90
12688;DHT22;6408;59.388;17.798;2023-02-14T10:04:14;7.20;99.90
12688;DHT22;6408;59.388;17.798;2023-02-14T10:06:49;7.20;99.90
12688;DHT22;6408;59.388;17.798;2023-02-14T10:09:30;7.60;99.90
12688;DHT22;6408;59.388;17.798;2023-02-14T10:12:03;10.00;99.90
12688;DHT22;6408;59.388;17.798;2023-02-14T10:14:34;11.90;99.90
12688;DHT22;6408;59.388;17.798;2023-02-14T10:17:08;13.40;99.90
12688;DHT22;6408;59.388;17.798;2023-02-14T10:19:40;15.20;99.90
12688;DHT22;6408;59.388;17.798;2023-02-14T10:22:11;15.50;99.90
12688;DHT22;6408;59.388;17.798;2023-02-14T10:24:44;15.60;99.90
12688;DHT22;6408;59.388;17.798;2023-02-14T10:27:28;14.90;99.90
12688;DHT22;6408;59.388;17.798;2023-02-14T10:29:56;14.90;99.90
12688;DHT22;6408;59.388;17.798;2023-02-14T10:32:28;15.90;99.90
12688;DHT22;6408;59.388;17.798;2023-02-14T10:35:00;17.00;99.90
12688;DHT22;6408;59.388;17.798;2023-02-14T10:37:46;17.40;99.90
12688;DHT22;6408;59.388;17.798;2023-02-14T10:40:33;16.40;99.90
12688;DHT22;6408;59.388;17.798;2023-02-14T10:43:13;15.30;99.90
12688;DHT22;6408;59.388;17.798;2023-02-14T10:45:46;14.10;99.90
12688;DHT22;6408;59.388;17.798;2023-02-14T10:48:24;13.30;99.90
12688;DHT22;6408;59.388;17.798;2023-02-14T10:51:00;13.40;99.90
12688;DHT22;6408;59.388;17.798;2023-02-14T10:53:34;13.50;99.90
12688;DHT22;6408;59.388;17.798;2023-02-14T10:56:05;13.60;99.90
12688;DHT22;6408;59.388;17.798;2023-02-14T10:58:37;12.30;99.90
12688;DHT22;6408;59.388;17.798;2023-02-14T11:01:08;11.00;99.90
12688;DHT22;6408;59.388;17.798;2023-02-14T11:03:39;10.40;99.90
12688;DHT22;6408;59.388;17.798;2023-02-14T11:06:10;9.80;99.90
12688;DHT22;6408;59.388;17.798;2023-02-14T11:08:39;9.60;99.90
12688;DHT22;6408;59.388;17.798;2023-02-14T11:11:14;9.40;99.90
12688;DHT22;6408;59.388;17.798;2023-02-14T11:13:43;9.80;99.90
12688;DHT22;6408;59.388;17.798;2023-02-14T11:16:12;10.70;99.90
12688;DHT22;6408;59.388;17.798;2023-02-14T11:18:44;10.90;99.90
12688;DHT22;6408;59.388;17.798;2023-02-14T11:21:15;12.00;99.90
12688;DHT22;6408;59.388;17.798;2023-02-14T11:23:47;13.60;99.90
12688;DHT22;6408;59.388;17.798;2023-02-14T11:26:21;14.70;99.90
12688;DHT22;6408;59.388;17.798;2023-02-14T11:28:53;16.20;99.90
12688;DHT22;6408;59.388;17.798;2023-02-14T11:31:29;16.80;99.90
12688;DHT22;6408;59.388;17.798;2023-02-14T11:33:59;16.00;99.90
12688;DHT22;6408;59.388;17.798;2023-02-14T11:36:30;15.70;99.90
12688;DHT22;6408;59.388;17.798;2023-02-14T11:39:04;16.50;99.90
12688;DHT22;6408;59.388;17.798;2023-02-14T11:41:47;18.00;99.90
12688;DHT22;6408;59.388;17.798;2023-02-14T11:44:17;18.80;99.90
12688;DHT22;6408;59.388;17.798;2023-02-14T11:46:47;19.30;99.90
12688;DHT22;6408;59.388;17.798;2023-02-14T11:49:25;18.00;99.90
12688;DHT22;6408;59.388;17.798;2023-02-14T11:51:57;18.30;99.90
12688;DHT22;6408;59.388;17.798;2023-02-14T11:54:32;17.60;99.90
12688;DHT22;6408;59.388;17.798;2023-02-14T11:57:05;14.70;99.90
12688;DHT22;6408;59.388;17.798;2023-02-14T11:59:37;12.40;99.90
12688;DHT22;6408;59.388;17.798;2023-02-14T12:02:19;10.90;99.90
12688;DHT22;6408;59.388;17.798;2023-02-14T12:04:49;9.90;99.90
12688;DHT22;6408;59.388;17.798;2023-02-14T12:07:24;9.20;99.90
12688;DHT22;6408;59.388;17.798;2023-02-14T12:10:15;8.90;99.90
12688;DHT22;6408;59.388;17.798;2023-02-14T12:12:55;10.20;99.90
12688;DHT22;6408;59.388;17.798;2023-02-14T12:15:33;10.60;99.90
12688;DHT22;6408;59.388;17.798;2023-02-14T12:18:21;10.10;99.90
12688;DHT22;6408;59.388;17.798;2023-02-14T12:20:54;9.50;99.90
12688;DHT22;6408;59.388;17.798;2023-02-14T12:23:28;9.40;99.90
12688;DHT22;6408;59.388;17.798;2023-02-14T12:26:00;9.70;99.90
12688;DHT22;6408;59.388;17.798;2023-02-14T12:28:32;11.30;99.90
12688;DHT22;6408;59.388;17.798;2023-02-14T12:31:08;13.20;99.90
12688;DHT22;6408;59.388;17.798;2023-02-14T12:33:37;13.20;99.90
12688;DHT22;6408;59.388;17.798;2023-02-14T12:36:13;11.90;99.90
12688;DHT22;6408;59.388;17.798;2023-02-14T12:38:49;10.70;99.90
12688;DHT22;6408;59.388;17.798;2023-02-14T12:41:33;10.00;99.90
12688;DHT22;6408;59.388;17.798;2023-02-14T12:44:07;9.80;99.90
12688;DHT22;6408;59.388;17.798;2023-02-14T12:46:57;10.00;99.90
12688;DHT22;6408;59.388;17.798;2023-02-14T12:49:42;10.30;99.90
12688;DHT22;6408;59.388;17.798;2023-02-14T12:52:32;10.30;99.90
12688;DHT22;6408;59.388;17.798;2023-02-14T12:55:23;10.30;99.90
12688;DHT22;6408;59.388;17.798;2023-02-14T12:58:00;10.10;99.90
12688;DHT22;6408;59.388;17.798;2023-02-14T13:00:37;9.60;99.90
12688;DHT22;6408;59.388;17.798;2023-02-14T13:06:14;10.80;99.90
12688;DHT22;6408;59.388;17.798;2023-02-14T13:09:03;10.70;99.90
12688;DHT22;6408;59.388;17.798;2023-02-14T13:11:41;10.70;99.90
12688;DHT22;6408;59.388;17.798;2023-02-14T13:14:20;10.80;99.90
12688;DHT22;6408;59.388;17.798;2023-02-14T13:16:54;11.10;99.90
12688;DHT22;6408;59.388;17.798;2023-02-14T13:19:32;11.20;99.90
12688;DHT22;6408;59.388;17.798;2023-02-14T13:22:03;11.60;99.90
12688;DHT22;6408;59.388;17.798;2023-02-14T13:24:37;11.70;99.90
12688;DHT22;6408;59.388;17.798;2023-02-14T13:27:13;11.90;99.90
12688;DHT22;6408;59.388;17.798;2023-02-14T13:29:46;12.00;99.90
12688;DHT22;6408;59.388;17.798;2023-02-14T13:32:17;12.20;99.90
12688;DHT22;6408;59.388;17.798;2023-02-14T13:34:47;12.40;99.90
12688;DHT22;6408;59.388;17.798;2023-02-14T13:37:18;12.50;99.90
12688;DHT22;6408;59.388;17.798;2023-02-14T13:39:49;12.30;99.90
12688;DHT22;6408;59.388;17.798;2023-02-14T13:42:54;12.20;99.90
12688;DHT22;6408;59.388;17.798;2023-02-14T13:48:29;11.50;99.90
12688;DHT22;6408;59.388;17.798;2023-02-14T13:50:58;11.40;99.90
12688;DHT22;6408;59.388;17.798;2023-02-14T13:53:35;11.20;99.90
12688;DHT22;6408;59.388;17.798;2023-02-14T13:58:51;9.70;99.90
12688;DHT22;6408;59.388;17.798;2023-02-14T14:01:35;9.00;99.90
12688;DHT22;6408;59.388;17.798;2023-02-14T14:04:08;9.20;99.90
12688;DHT22;6408;59.388;17.798;2023-02-14T14:07:19;9.40;99.90
12688;DHT22;6408;59.388;17.798;2023-02-14T14:10:03;9.10;99.90
12688;DHT22;6408;59.388;17.798;2023-02-14T14:12:38;8.60;99.90
12688;DHT22;6408;59.388;17.798;2023-02-14T14:15:19;8.10;99.90
12688;DHT22;6408;59.388;17.798;2023-02-14T14:18:29;7.90;99.90
12688;DHT22;6408;59.388;17.798;2023-02-14T14:20:57;7.60;99.90
12688;DHT22;6408;59.388;17.798;2023-02-14T14:23:34;7.40;99.90
12688;DHT22;6408;59.388;17.798;2023-02-14T14:26:29;7.30;99.90
12688;DHT22;6408;59.388;17.798;2023-02-14T14:29:02;7.10;99.90
12688;DHT22;6408;59.388;17.798;2023-02-14T14:31:39;7.10;99.90
12688;DHT22;6408;59.388;17.798;2023-02-14T14:34:15;7.00;99.90
12688;DHT22;6408;59.388;17.798;2023-02-14T14:36:43;7.00;99.90
12688;DHT22;6408;59.388;17.798;2023-02-14T14:39:11;6.80;99.90
12688;DHT22;6408;59.388;17.798;2023-02-14T14:41:39;6.80;99.90
12688;DHT22;6408;59.388;17.798;2023-02-14T14:44:07;6.70;99.90
12688;DHT22;6408;59.388;17.798;2023-02-14T14:46:38;6.70;99.90
12688;DHT22;6408;59.388;17.798;2023-02-14T14:49:09;6.60;99.90
12688;DHT22;6408;59.388;17.798;2023-02-14T14:51:37;6.60;99.90
12688;DHT22;6408;59.388;17.798;2023-02-14T14:54:12;6.60;99.90
12688;DHT22;6408;59.388;17.798;2023-02-14T14:56:46;6.50;99.90
12688;DHT22;6408;59.388;17.798;2023-02-14T14:59:17;6.50;99.90
12688;DHT22;6408;59.388;17.798;2023-02-14T15:01:46;6.60;99.90
12688;DHT22;6408;59.388;17.798;2023-02-14T15:04:18;6.50;99.90
12688;DHT22;6408;59.388;17.798;2023-02-14T15:06:46;6.50;99.90
12688;DHT22;6408;59.388;17.798;2023-02-14T15:09:18;6.40;99.90
12688;DHT22;6408;59.388;17.798;2023-02-14T15:11:47;6.40;99.90
12688;DHT22;6408;59.388;17.798;2023-02-14T15:14:36;6.30;99.90
12688;DHT22;6408;59.388;17.798;2023-02-14T15:17:13;6.30;99.90
12688;DHT22;6408;59.388;17.798;2023-02-14T15:19:45;6.30;99.90
12688;DHT22;6408;59.388;17.798;2023-02-14T15:22:18;6.20;99.90
12688;DHT22;6408;59.388;17.798;2023-02-14T15:24:46;6.10;99.90
12688;DHT22;6408;59.388;17.798;2023-02-14T15:27:17;6.10;99.90
12688;DHT22;6408;59.388;17.798;2023-02-14T15:29:53;6.10;99.90
12688;DHT22;6408;59.388;17.798;2023-02-14T15:32:23;6.00;99.90
12688;DHT22;6408;59.388;17.798;2023-02-14T15:34:52;5.80;99.90
12688;DHT22;6408;59.388;17.798;2023-02-14T15:37:20;5.80;99.90
12688;DHT22;6408;59.388;17.798;2023-02-14T15:39:51;5.70;99.90
12688;DHT22;6408;59.388;17.798;2023-02-14T15:42:22;5.60;99.90
12688;DHT22;6408;59.388;17.798;2023-02-14T15:45:13;5.50;99.90
12688;DHT22;6408;59.388;17.798;2023-02-14T15:47:44;5.30;99.90
12688;DHT22;6408;59.388;17.798;2023-02-14T15:50:14;5.30;99.90
12688;DHT22;6408;59.388;17.798;2023-02-14T15:52:43;5.20;99.90
12688;DHT22;6408;59.388;17.798;2023-02-14T15:55:11;5.10;99.90
12688;DHT22;6408;59.388;17.798;2023-02-14T15:57:42;5.10;99.90
12688;DHT22;6408;59.388;17.798;2023-02-14T16:00:16;5.00;99.90
12688;DHT22;6408;59.388;17.798;2023-02-14T16:02:51;5.00;99.90
12688;DHT22;6408;59.388;17.798;2023-02-14T16:05:22;4.90;99.90
12688;DHT22;6408;59.388;17.798;2023-02-14T16:07:58;4.90;99.90
12688;DHT22;6408;59.388;17.798;2023-02-14T16:10:30;4.80;99.90
12688;DHT22;6408;59.388;17.798;2023-02-14T16:13:00;4.70;99.90
12688;DHT22;6408;59.388;17.798;2023-02-14T16:15:29;4.60;99.90
12688;DHT22;6408;59.388;17.798;2023-02-14T16:18:00;4.40;99.90
12688;DHT22;6408;59.388;17.798;2023-02-14T16:20:40;4.30;99.90
12688;DHT22;6408;59.388;17.798;2023-02-14T16:23:29;4.30;99.90
12688;DHT22;6408;59.388;17.798;2023-02-14T16:25:56;4.30;99.90
12688;DHT22;6408;59.388;17.798;2023-02-14T16:28:27;4.30;99.90
12688;DHT22;6408;59.388;17.798;2023-02-14T16:30:56;4.30;99.90